Pagrindinis puslapis
METAR-TAF:

METAR-TAF

Oro uostai :

Al Bahah, Saudo Arabija

platuma: 20-18N, ilguma: 041-38E, Aukštis: 1652 m

Dabartinis oras

Ataskaita buvo paskelbta 59 minutes, ne 16:00 UTC
Vėjas 4 kt iš Pietų
Temperatūra 14°C
Drėgmė 51%
Slėgis 1018 hPa
Matomumas 10 km arba daugiau
nėra debesų žemiau 1500 m ir nėra kamuolinių lietaus debesų

METAR: OEBA 221600Z 18004KT CAVOK 14/04 Q1018 NOSIG

Laikas: 19:59 (16:59 UTC)

Prognozė

Ataskaita buvo paskelbta 5 valandos ir 59 minutes, ne 11:00 UTC
Prognozė galioja nuo 22 metu 12 UTC su 23 metu 18 UTC
Vėjas 14 kt iš Vakarų/Pietvakarių
Matomumas: 8000 m
Mažai debesys ne aukštis 3000 ft
Tapsmas
nuo 22 metu 18 UTC su 22 metu 20 UTC
Vėjas 3 kt nuo kintamojo kryptimis

TAF: OEBA 221100Z 2212/2318 24014KT 8000 FEW030 BECMG 2218/2220 VRB03KT

Orai ataskaitas ir orų prognozės (METAR, TAF).

turimą stotys yra geltonos ir raudonos taškus žemėlapyje.

Perkelti pele per norėdami pamatyti stoties vardą.

Tada spustelėkite, norėdami matyti oro stebėjimo ir prognozės.

Norėdami pakeisti žemėlapį: spustelėkite ant žalios mygtukų su juodo kryžiaus žemyn,; žalią mygtuką su brūkšneliu, jei norite nutolinti; arba žalių rodyklių gretimoms žemėlapius.


METAR-TAF: